Time;durP1;ratioP1;P1;durP2;ratioP2;P2;SDS_P1;SDS_P2;PMS_P1;PMS_P2;Temp;Humidity;BMP_temperature;BMP_pressure;BME280_temperature;BME280_humidity;BME280_pressure;Samples;Min_cycle;Max_cycle;Signal;HPM_P1;HPM_P2
2023/03/29 00:00:12;;;;;;;4.83;3.23;;;;;;;;;;5034317;28;20255;-51
2023/03/29 00:03:01;;;;;;;7.20;3.63;;;;;;;;;;5034046;28;20204;-50
2023/03/29 00:05:32;;;;;;;5.07;3.03;;;;;;;;;;5033928;28;20736;-50
2023/03/29 00:08:02;;;;;;;6.90;2.77;;;;;;;;;;5034206;28;20271;-52
2023/03/29 00:10:31;;;;;;;6.13;3.17;;;;;;;;;;5033846;28;20689;-51
2023/03/29 00:12:59;;;;;;;5.80;3.23;;;;;;;;;;5033924;28;20201;-50
2023/03/29 00:15:26;;;;;;;5.87;3.17;;;;;;;;;;5034150;28;20225;-51
2023/03/29 00:17:53;;;;;;;5.83;3.80;;;;;;;;;;5033907;28;20228;-51
2023/03/29 00:20:21;;;;;;;6.20;3.67;;;;;;;;;;5034045;28;20208;-50
2023/03/29 00:22:48;;;;;;;7.80;3.60;;;;;;;;;;5033908;28;20554;-51
2023/03/29 00:25:15;;;;;;;6.60;3.27;;;;;;;;;;5033945;28;20212;-51
2023/03/29 00:27:43;;;;;;;5.73;3.07;;;;;;;;;;5033557;28;20615;-51
2023/03/29 00:30:10;;;;;;;6.50;3.40;;;;;;;;;;5033599;28;20225;-51
2023/03/29 00:32:38;;;;;;;6.40;2.70;;;;;;;;;;5033648;28;20650;-51
2023/03/29 00:35:06;;;;;;;6.47;3.40;;;;;;;;;;5015904;28;20215;-50
2023/03/29 00:37:33;;;;;;;6.67;3.67;;;;;;;;;;5033813;28;20189;-51
2023/03/29 00:40:01;;;;;;;6.77;3.60;;;;;;;;;;5033843;28;20208;-51
2023/03/29 00:42:28;;;;;;;6.30;2.77;;;;;;;;;;5033635;28;20274;-51
2023/03/29 00:44:58;;;;;;;5.87;3.50;;;;;;;;;;5033594;28;20250;-51
2023/03/29 00:47:31;;;;;;;4.37;2.70;;;;;;;;;;5032483;28;20250;-50
2023/03/29 00:50:04;;;;;;;5.03;3.07;;;;;;;;;;5033602;28;20240;-51
2023/03/29 00:52:32;;;;;;;8.97;3.57;;;;;;;;;;5033772;28;20204;-51
2023/03/29 00:55:04;;;;;;;6.03;3.40;;;;;;;;;;5033263;28;20204;-51
2023/03/29 00:57:32;;;;;;;6.80;3.47;;;;;;;;;;5048637;28;20208;-51
2023/03/29 01:00:00;;;;;;;6.40;3.30;;;;;;;;;;5015850;28;20216;-50
2023/03/29 01:02:28;;;;;;;7.97;3.63;;;;;;;;;;5016067;28;20250;-51
2023/03/29 01:04:59;;;;;;;6.83;3.53;;;;;;;;;;5033846;28;20208;-53
2023/03/29 01:07:36;;;;;;;4.90;2.80;;;;;;;;;;5032381;28;20258;-51
2023/03/29 01:10:11;;;;;;;6.10;2.90;;;;;;;;;;5015799;28;20719;-50
2023/03/29 01:12:44;;;;;;;7.07;3.70;;;;;;;;;;4999459;28;20189;-51
2023/03/29 01:15:14;;;;;;;9.43;3.43;;;;;;;;;;5031929;28;20232;-52
2023/03/29 01:17:48;;;;;;;9.07;3.60;;;;;;;;;;5000228;28;20208;-50
2023/03/29 01:20:22;;;;;;;10.27;3.37;;;;;;;;;;5033228;28;20208;-50
2023/03/29 01:23:08;;;;;;;5.20;2.33;;;;;;;;;;5015619;28;20193;-51
2023/03/29 01:25:42;;;;;;;9.67;3.53;;;;;;;;;;5049074;28;20209;-51
2023/03/29 01:28:13;;;;;;;6.37;3.53;;;;;;;;;;4999651;28;20228;-51
2023/03/29 01:30:48;;;;;;;8.40;3.87;;;;;;;;;;5015919;28;20224;-50
2023/03/29 01:33:24;;;;;;;4.67;2.93;;;;;;;;;;5015723;28;20203;-51
2023/03/29 01:35:56;;;;;;;8.00;3.63;;;;;;;;;;5016012;28;20204;-51
2023/03/29 01:38:29;;;;;;;6.07;3.47;;;;;;;;;;5015668;28;20216;-52
2023/03/29 01:40:56;;;;;;;5.70;3.47;;;;;;;;;;4999195;28;20209;-50
2023/03/29 01:43:30;;;;;;;5.50;3.37;;;;;;;;;;5033138;28;20584;-51
2023/03/29 01:46:08;;;;;;;4.93;2.87;;;;;;;;;;4999184;28;20228;-51
2023/03/29 01:48:53;;;;;;;7.27;3.00;;;;;;;;;;5048639;28;20193;-51
2023/03/29 01:51:28;;;;;;;5.07;2.70;;;;;;;;;;5032885;28;20229;-54
2023/03/29 01:54:18;;;;;;;7.40;3.87;;;;;;;;;;5033172;28;20247;-53
2023/03/29 01:56:47;;;;;;;8.03;3.70;;;;;;;;;;5047927;28;20246;-54
2023/03/29 01:59:27;;;;;;;7.37;3.40;;;;;;;;;;5015427;28;20674;-55
2023/03/29 02:01:58;;;;;;;6.33;3.07;;;;;;;;;;5016551;28;20200;-53
2023/03/29 02:04:33;;;;;;;5.50;3.10;;;;;;;;;;5002957;28;20217;-54
2023/03/29 02:07:02;;;;;;;7.83;3.60;;;;;;;;;;5019118;28;20568;-50
2023/03/29 02:09:30;;;;;;;5.33;3.00;;;;;;;;;;5018714;28;20201;-51
2023/03/29 02:12:00;;;;;;;5.20;2.83;;;;;;;;;;5036327;28;20247;-51
2023/03/29 02:14:31;;;;;;;5.93;3.30;;;;;;;;;;5019385;28;20209;-51
2023/03/29 02:17:32;;;;;;;5.17;2.57;;;;;;;;;;5036125;28;20232;-51
2023/03/29 02:20:03;;;;;;;6.30;3.77;;;;;;;;;;4955815;29;20207;-51
2023/03/29 02:22:36;;;;;;;8.60;3.17;;;;;;;;;;4940097;29;20207;-50
2023/03/29 02:25:07;;;;;;;7.53;2.57;;;;;;;;;;4956103;29;20207;-51
2023/03/29 02:27:36;;;;;;;6.10;2.73;;;;;;;;;;4955733;29;20221;-51
2023/03/29 02:30:06;;;;;;;5.13;2.67;;;;;;;;;;4939631;29;20350;-51
2023/03/29 02:32:39;;;;;;;5.83;3.03;;;;;;;;;;4939703;29;20262;-51
2023/03/29 02:35:12;;;;;;;6.73;3.10;;;;;;;;;;4939680;29;20639;-52
2023/03/29 02:37:43;;;;;;;6.27;3.40;;;;;;;;;;4939693;29;20254;-50
2023/03/29 02:40:11;;;;;;;6.93;3.37;;;;;;;;;;4955450;29;20211;-51
2023/03/29 02:42:40;;;;;;;5.53;2.97;;;;;;;;;;4955611;29;20208;-51
2023/03/29 02:45:10;;;;;;;6.47;3.17;;;;;;;;;;4940057;29;20291;-51
2023/03/29 02:47:40;;;;;;;6.50;3.37;;;;;;;;;;4955392;29;20233;-50
2023/03/29 02:50:08;;;;;;;6.40;2.53;;;;;;;;;;4955497;29;20219;-51
2023/03/29 02:52:39;;;;;;;4.97;2.90;;;;;;;;;;4939242;29;20204;-50
2023/03/29 02:55:09;;;;;;;7.73;3.80;;;;;;;;;;4977745;28;20201;-51
2023/03/29 02:57:38;;;;;;;6.10;2.80;;;;;;;;;;5018036;28;20575;-52
2023/03/29 03:00:09;;;;;;;4.50;2.57;;;;;;;;;;5035208;28;20205;-51
2023/03/29 03:02:39;;;;;;;5.33;2.60;;;;;;;;;;5034058;28;20673;-51
2023/03/29 03:05:08;;;;;;;6.80;2.87;;;;;;;;;;5017658;28;20280;-50
2023/03/29 03:07:39;;;;;;;5.70;3.20;;;;;;;;;;5034249;28;20204;-51
2023/03/29 03:10:08;;;;;;;4.03;2.70;;;;;;;;;;5034275;28;20259;-49
2023/03/29 03:12:37;;;;;;;5.10;2.50;;;;;;;;;;5034207;28;20201;-49
2023/03/29 03:15:05;;;;;;;4.53;2.53;;;;;;;;;;5017500;28;20216;-51
2023/03/29 03:17:32;;;;;;;4.47;2.53;;;;;;;;;;5034109;28;20189;-51
2023/03/29 03:20:00;;;;;;;4.83;2.80;;;;;;;;;;5017245;28;20205;-50
2023/03/29 03:22:27;;;;;;;6.17;2.50;;;;;;;;;;5017655;28;20211;-50
2023/03/29 03:24:55;;;;;;;4.87;2.67;;;;;;;;;;5017355;28;20204;-50
2023/03/29 03:27:22;;;;;;;4.37;2.37;;;;;;;;;;5034648;28;20201;-50
2023/03/29 03:29:49;;;;;;;6.53;2.90;;;;;;;;;;5050021;28;20661;-50
2023/03/29 03:32:17;;;;;;;8.13;2.97;;;;;;;;;;5026538;28;20713;-50
2023/03/29 03:35:08;;;;;;;4.17;2.87;;;;;;;;;;5018758;28;20205;-52
2023/03/29 03:37:37;;;;;;;3.97;2.13;;;;;;;;;;5034545;28;20228;-55
2023/03/29 03:40:10;;;;;;;6.57;3.07;;;;;;;;;;4991995;28;20219;-52
2023/03/29 03:42:39;;;;;;;8.57;3.67;;;;;;;;;;4987892;28;20308;-54
2023/03/29 03:45:08;;;;;;;5.97;3.03;;;;;;;;;;4975034;28;20206;-50
2023/03/29 03:47:45;;;;;;;7.20;3.90;;;;;;;;;;4992788;28;20194;-51
2023/03/29 03:50:21;;;;;;;5.17;3.13;;;;;;;;;;4992825;28;20210;-50
2023/03/29 03:52:49;;;;;;;6.97;4.13;;;;;;;;;;4992583;28;20682;-51
2023/03/29 03:55:16;;;;;;;8.73;3.40;;;;;;;;;;4992460;28;20205;-53
2023/03/29 03:57:51;;;;;;;6.67;3.93;;;;;;;;;;4992528;28;20205;-51
2023/03/29 04:00:20;;;;;;;6.73;3.70;;;;;;;;;;4992228;28;20217;-50
2023/03/29 04:03:14;;;;;;;8.50;3.63;;;;;;;;;;4991931;28;20202;-50
2023/03/29 04:05:44;;;;;;;8.97;3.10;;;;;;;;;;4990933;28;20202;-50
2023/03/29 04:08:13;;;;;;;9.67;3.83;;;;;;;;;;5004190;28;20233;-50
2023/03/29 04:11:09;;;;;;;9.70;3.60;;;;;;;;;;5004051;28;20693;-50
2023/03/29 04:13:40;;;;;;;5.87;3.30;;;;;;;;;;5031729;28;20260;-51
2023/03/29 04:16:33;;;;;;;7.27;3.80;;;;;;;;;;5011443;28;20233;-50
2023/03/29 04:19:16;;;;;;;7.23;3.47;;;;;;;;;;5048287;28;20661;-50
2023/03/29 04:21:46;;;;;;;7.40;3.83;;;;;;;;;;5011413;28;20237;-51
2023/03/29 04:24:14;;;;;;;5.77;3.60;;;;;;;;;;5038764;28;20228;-49
2023/03/29 04:26:47;;;;;;;6.37;3.33;;;;;;;;;;5031427;28;20225;-51
2023/03/29 04:29:20;;;;;;;6.87;2.90;;;;;;;;;;5047769;28;20216;-51
2023/03/29 04:31:55;;;;;;;4.87;2.80;;;;;;;;;;5013422;28;20236;-52
2023/03/29 04:34:40;;;;;;;7.20;3.77;;;;;;;;;;5011448;28;20227;-51
2023/03/29 04:37:08;;;;;;;5.07;3.23;;;;;;;;;;5030387;28;20212;-52
2023/03/29 04:39:37;;;;;;;5.33;3.10;;;;;;;;;;5030335;28;20223;-51
2023/03/29 04:42:06;;;;;;;8.30;3.43;;;;;;;;;;5013134;28;20681;-54
2023/03/29 04:44:33;;;;;;;9.73;3.50;;;;;;;;;;4980592;28;20256;-51
2023/03/29 04:47:04;;;;;;;6.83;3.43;;;;;;;;;;5011951;28;20236;-52
2023/03/29 04:49:34;;;;;;;8.17;3.63;;;;;;;;;;5030242;28;20610;-52
2023/03/29 04:52:06;;;;;;;7.80;3.87;;;;;;;;;;5012357;28;20232;-51
2023/03/29 04:54:36;;;;;;;6.53;3.17;;;;;;;;;;5012969;28;20355;-51
2023/03/29 04:57:29;;;;;;;7.00;3.03;;;;;;;;;;5026200;28;20220;-52
2023/03/29 05:00:13;;;;;;;12.80;4.53;;;;;;;;;;5028202;28;20216;-51
2023/03/29 05:03:00;;;;;;;8.70;3.87;;;;;;;;;;5012890;28;20288;-52
2023/03/29 05:05:30;;;;;;;5.40;3.10;;;;;;;;;;5044124;28;20212;-51
2023/03/29 05:08:00;;;;;;;5.97;2.90;;;;;;;;;;5013567;28;20229;-54
2023/03/29 05:10:36;;;;;;;5.23;3.47;;;;;;;;;;5013025;28;20301;-51
2023/03/29 05:13:03;;;;;;;9.97;4.13;;;;;;;;;;5013157;28;20263;-51
2023/03/29 05:15:31;;;;;;;5.50;3.07;;;;;;;;;;5013237;28;20319;-55
2023/03/29 05:17:59;;;;;;;10.30;4.33;;;;;;;;;;5014240;28;20223;-51
2023/03/29 05:20:27;;;;;;;4.87;2.77;;;;;;;;;;5013912;28;20224;-51
2023/03/29 05:22:56;;;;;;;5.97;2.43;;;;;;;;;;5014901;28;20231;-56
2023/03/29 05:25:49;;;;;;;9.23;3.47;;;;;;;;;;5032766;28;20204;-51
2023/03/29 05:28:18;;;;;;;13.07;4.40;;;;;;;;;;5031640;28;20196;-54
2023/03/29 05:30:45;;;;;;;11.73;4.57;;;;;;;;;;5031317;28;20677;-52
2023/03/29 05:33:18;;;;;;;9.80;5.20;;;;;;;;;;5031746;28;20209;-51
2023/03/29 05:35:45;;;;;;;7.07;3.60;;;;;;;;;;5015348;28;20209;-51
2023/03/29 05:38:13;;;;;;;13.30;5.67;;;;;;;;;;5035867;28;20200;-52
2023/03/29 05:40:40;;;;;;;9.13;4.63;;;;;;;;;;5035800;28;20249;-52
2023/03/29 05:43:28;;;;;;;6.30;4.10;;;;;;;;;;5036506;28;20200;-51
2023/03/29 05:45:55;;;;;;;7.93;3.80;;;;;;;;;;5052083;28;20207;-52
2023/03/29 05:48:24;;;;;;;8.37;3.77;;;;;;;;;;5035393;28;20200;-51
2023/03/29 05:50:53;;;;;;;6.97;3.57;;;;;;;;;;5035524;28;20640;-54
2023/03/29 05:53:23;;;;;;;8.87;4.17;;;;;;;;;;5019034;28;20212;-54
2023/03/29 05:55:50;;;;;;;9.13;3.73;;;;;;;;;;5036633;28;20291;-54
2023/03/29 05:58:20;;;;;;;9.43;3.93;;;;;;;;;;5035498;28;20205;-53
2023/03/29 06:00:48;;;;;;;8.60;3.50;;;;;;;;;;5035386;28;20246;-54
2023/03/29 06:03:35;;;;;;;8.63;4.00;;;;;;;;;;5018960;28;20201;-53
2023/03/29 06:06:03;;;;;;;8.33;4.10;;;;;;;;;;5035152;28;20205;-55
2023/03/29 06:08:33;;;;;;;8.87;3.53;;;;;;;;;;5036188;28;20661;-55
2023/03/29 06:11:25;;;;;;;5.67;2.93;;;;;;;;;;5035023;28;20252;-54
2023/03/29 06:14:12;;;;;;;7.10;3.23;;;;;;;;;;5036134;28;20209;-52
2023/03/29 06:16:45;;;;;;;7.07;3.40;;;;;;;;;;5034980;28;20255;-52
2023/03/29 06:19:14;;;;;;;7.13;3.50;;;;;;;;;;5035313;28;20213;-52
2023/03/29 06:21:41;;;;;;;11.27;3.60;;;;;;;;;;5034720;28;20258;-54
2023/03/29 06:24:12;;;;;;;7.20;3.50;;;;;;;;;;5018652;28;20192;-51
2023/03/29 06:26:45;;;;;;;8.43;3.73;;;;;;;;;;5018478;28;20228;-56
2023/03/29 06:29:13;;;;;;;6.57;3.00;;;;;;;;;;5034703;28;20258;-53
2023/03/29 06:31:41;;;;;;;10.17;2.90;;;;;;;;;;5051043;28;20315;-53
2023/03/29 06:34:22;;;;;;;4.17;2.27;;;;;;;;;;5034663;28;20623;-53
2023/03/29 06:37:12;;;;;;;3.60;2.10;;;;;;;;;;5024851;28;20251;-51
2023/03/29 06:39:40;;;;;;;3.77;1.97;;;;;;;;;;5034597;28;20205;-52
2023/03/29 06:42:21;;;;;;;4.87;1.80;;;;;;;;;;5034802;28;20204;-51
2023/03/29 06:45:04;;;;;;;4.97;2.37;;;;;;;;;;5034683;28;20197;-52
2023/03/29 06:47:31;;;;;;;3.47;2.20;;;;;;;;;;5017637;28;20235;-52
2023/03/29 06:49:59;;;;;;;4.87;2.20;;;;;;;;;;5017873;28;20209;-53
2023/03/29 06:52:30;;;;;;;3.50;2.10;;;;;;;;;;5018405;28;20229;-52
2023/03/29 06:55:00;;;;;;;5.20;2.33;;;;;;;;;;5034108;28;20669;-53
2023/03/29 06:57:28;;;;;;;5.20;2.20;;;;;;;;;;5035559;28;20247;-53
2023/03/29 06:59:55;;;;;;;5.03;2.70;;;;;;;;;;5035553;28;20211;-56
2023/03/29 07:02:32;;;;;;;6.73;2.87;;;;;;;;;;5034198;28;20235;-54
2023/03/29 07:05:12;;;;;;;6.07;2.80;;;;;;;;;;5034385;28;20664;-52
2023/03/29 07:10:42;;;;;;;5.80;2.60;;;;;;;;;;5034233;28;20200;-52
2023/03/29 07:13:29;;;;;;;7.73;2.87;;;;;;;;;;5034970;28;20292;-52
2023/03/29 07:15:58;;;;;;;5.47;2.67;;;;;;;;;;5017415;28;20233;-51
2023/03/29 07:18:48;;;;;;;4.77;2.40;;;;;;;;;;5050930;28;20189;-53
2023/03/29 07:21:44;;;;;;;8.57;3.50;;;;;;;;;;5034805;28;20209;-53
2023/03/29 07:24:12;;;;;;;3.43;1.90;;;;;;;;;;5035137;28;20250;-54
2023/03/29 07:26:40;;;;;;;5.63;2.90;;;;;;;;;;5033803;28;20200;-51
2023/03/29 07:29:27;;;;;;;7.47;2.73;;;;;;;;;;5034808;28;20247;-54
2023/03/29 07:31:56;;;;;;;4.20;2.50;;;;;;;;;;5016875;28;20228;-51
2023/03/29 07:34:49;;;;;;;6.70;2.63;;;;;;;;;;5035031;28;20212;-51
2023/03/29 07:37:24;;;;;;;8.93;2.57;;;;;;;;;;5017178;28;20274;-55
2023/03/29 07:39:52;;;;;;;4.60;2.40;;;;;;;;;;5016883;28;20228;-51
2023/03/29 07:42:38;;;;;;;5.47;2.13;;;;;;;;;;5034884;28;20212;-52
2023/03/29 07:45:08;;;;;;;4.77;2.10;;;;;;;;;;5016604;28;20212;-51
2023/03/29 07:47:47;;;;;;;5.27;2.10;;;;;;;;;;5002359;28;20197;-54
2023/03/29 07:50:16;;;;;;;4.27;2.33;;;;;;;;;;5016731;28;20208;-56
2023/03/29 07:52:44;;;;;;;4.43;2.03;;;;;;;;;;5034225;28;20228;-52
2023/03/29 07:55:12;;;;;;;5.10;2.47;;;;;;;;;;5033327;28;20197;-53
2023/03/29 07:58:06;;;;;;;5.07;2.70;;;;;;;;;;5032273;28;20204;-51
2023/03/29 08:00:34;;;;;;;8.03;2.53;;;;;;;;;;5048989;28;20732;-53
2023/03/29 08:03:21;;;;;;;5.70;3.00;;;;;;;;;;5033855;28;20646;-55
2023/03/29 08:05:48;;;;;;;4.27;2.40;;;;;;;;;;5016778;28;20200;-52
2023/03/29 08:08:16;;;;;;;5.20;2.67;;;;;;;;;;5016533;28;20666;-55
2023/03/29 08:11:07;;;;;;;6.07;2.87;;;;;;;;;;5016457;28;20205;-55
2023/03/29 08:14:04;;;;;;;8.27;4.00;;;;;;;;;;4973059;28;20206;-52
2023/03/29 08:17:06;;;;;;;6.47;2.50;;;;;;;;;;4915328;29;20252;-52
2023/03/29 08:19:39;;;;;;;4.50;2.00;;;;;;;;;;4899913;29;20208;-53
2023/03/29 08:22:19;;;;;;;5.03;2.13;;;;;;;;;;4899858;29;20216;-52
2023/03/29 08:25:07;;;;;;;6.70;3.00;;;;;;;;;;4915528;29;20213;-51
2023/03/29 08:27:41;;;;;;;8.67;3.20;;;;;;;;;;4915781;29;20205;-55
2023/03/29 08:30:10;;;;;;;7.57;2.70;;;;;;;;;;4915524;29;20209;-51
2023/03/29 08:32:39;;;;;;;3.37;2.37;;;;;;;;;;4915653;29;20228;-52
2023/03/29 08:35:08;;;;;;;6.10;2.53;;;;;;;;;;4915419;29;20219;-51
2023/03/29 08:37:55;;;;;;;5.20;2.30;;;;;;;;;;4915231;29;20350;-52
2023/03/29 08:40:26;;;;;;;6.17;2.60;;;;;;;;;;4915258;29;20204;-52
2023/03/29 08:43:46;;;;;;;4.60;2.50;;;;;;;;;;4900315;29;20323;-52
2023/03/29 08:46:30;;;;;;;5.57;2.37;;;;;;;;;;4899916;29;20213;-52
2023/03/29 08:49:15;;;;;;;6.37;2.70;;;;;;;;;;4915274;29;20716;-55
2023/03/29 08:51:48;;;;;;;5.50;2.80;;;;;;;;;;4990315;28;20200;-53
2023/03/29 08:54:23;;;;;;;5.60;2.30;;;;;;;;;;5032213;28;20255;-51
2023/03/29 08:57:20;;;;;;;5.97;2.77;;;;;;;;;;5033244;28;20212;-53
2023/03/29 08:59:54;;;;;;;7.47;2.70;;;;;;;;;;5048674;28;20712;-53
2023/03/29 09:02:24;;;;;;;3.53;2.30;;;;;;;;;;5031781;28;20577;-55
2023/03/29 09:05:19;;;;;;;5.33;2.57;;;;;;;;;;5030930;28;20271;-54
2023/03/29 09:08:17;;;;;;;3.97;1.87;;;;;;;;;;5023580;28;20550;-51
2023/03/29 09:11:05;;;;;;;5.23;2.70;;;;;;;;;;4996353;28;20205;-55
2023/03/29 09:13:48;;;;;;;6.50;2.50;;;;;;;;;;4999313;28;20229;-55
2023/03/29 09:16:27;;;;;;;4.13;2.27;;;;;;;;;;4998923;28;20685;-52
2023/03/29 09:19:08;;;;;;;5.80;2.60;;;;;;;;;;4999234;28;20205;-55
2023/03/29 09:21:48;;;;;;;4.07;2.03;;;;;;;;;;4999126;28;20193;-52
2023/03/29 09:24:26;;;;;;;6.57;2.30;;;;;;;;;;4998976;28;20197;-54
2023/03/29 09:27:05;;;;;;;4.90;2.57;;;;;;;;;;5014533;28;20209;-54
2023/03/29 09:29:41;;;;;;;5.30;2.67;;;;;;;;;;5014288;28;20260;-52
2023/03/29 09:32:16;;;;;;;2.80;1.80;;;;;;;;;;4998941;28;20224;-54
2023/03/29 09:35:06;;;;;;;5.30;1.70;;;;;;;;;;4999703;28;20716;-56
2023/03/29 09:37:36;;;;;;;2.97;1.60;;;;;;;;;;5015117;28;20209;-55
2023/03/29 09:40:10;;;;;;;3.20;2.07;;;;;;;;;;5014907;28;20212;-52
2023/03/29 09:42:54;;;;;;;3.63;2.47;;;;;;;;;;4998863;28;20205;-54
2023/03/29 09:45:22;;;;;;;5.10;1.80;;;;;;;;;;5019344;28;20247;-54
2023/03/29 09:48:16;;;;;;;4.10;2.23;;;;;;;;;;5052807;28;20207;-53
2023/03/29 09:50:50;;;;;;;4.93;2.43;;;;;;;;;;5052094;28;20233;-53
2023/03/29 09:53:19;;;;;;;2.93;1.63;;;;;;;;;;5019062;28;20581;-54
2023/03/29 09:56:10;;;;;;;5.43;3.03;;;;;;;;;;5017392;28;20197;-53
2023/03/29 09:59:01;;;;;;;3.50;1.70;;;;;;;;;;5031076;28;20233;-53
2023/03/29 10:01:40;;;;;;;5.83;2.27;;;;;;;;;;5051926;28;20208;-52
2023/03/29 10:04:09;;;;;;;2.23;1.47;;;;;;;;;;5019008;28;20196;-56
2023/03/29 10:06:48;;;;;;;3.80;1.70;;;;;;;;;;5018790;28;20534;-55
2023/03/29 10:09:22;;;;;;;6.53;2.10;;;;;;;;;;5018642;28;20200;-55
2023/03/29 10:11:58;;;;;;;3.17;1.70;;;;;;;;;;5036255;28;20219;-54
2023/03/29 10:14:48;;;;;;;3.17;1.50;;;;;;;;;;5051223;28;20204;-55
2023/03/29 10:17:24;;;;;;;2.77;1.67;;;;;;;;;;5036448;28;20204;-54
2023/03/29 10:19:55;;;;;;;3.00;1.40;;;;;;;;;;5036453;28;20196;-55
2023/03/29 10:22:24;;;;;;;2.87;1.73;;;;;;;;;;5035445;28;20205;-55
2023/03/29 10:24:53;;;;;;;2.03;1.50;;;;;;;;;;5035868;28;20562;-52
2023/03/29 10:27:23;;;;;;;2.50;1.73;;;;;;;;;;5035879;28;20200;-57
2023/03/29 10:29:50;;;;;;;3.30;1.50;;;;;;;;;;5044850;28;20205;-52
2023/03/29 10:32:21;;;;;;;3.70;1.60;;;;;;;;;;5034862;28;20243;-55
2023/03/29 10:34:49;;;;;;;2.50;1.70;;;;;;;;;;5030658;28;20262;-55
2023/03/29 10:37:18;;;;;;;2.90;1.70;;;;;;;;;;5027010;28;20302;-54
2023/03/29 10:39:49;;;;;;;2.63;1.47;;;;;;;;;;5022973;28;20240;-52
2023/03/29 10:42:18;;;;;;;4.30;1.60;;;;;;;;;;5022115;28;20717;-56
2023/03/29 10:44:57;;;;;;;3.03;1.60;;;;;;;;;;5022581;28;20233;-52
2023/03/29 10:47:25;;;;;;;3.30;1.40;;;;;;;;;;5015043;28;20236;-55
2023/03/29 10:49:54;;;;;;;2.57;1.60;;;;;;;;;;5014852;28;20316;-52
2023/03/29 10:52:24;;;;;;;3.53;1.27;;;;;;;;;;5014811;28;20237;-54
2023/03/29 10:54:53;;;;;;;2.60;1.57;;;;;;;;;;5030119;28;20221;-55
2023/03/29 10:57:48;;;;;;;2.93;1.60;;;;;;;;;;5014987;28;20225;-55
2023/03/29 11:00:35;;;;;;;4.53;1.83;;;;;;;;;;5011545;28;20225;-53
2023/03/29 11:03:50;;;;;;;3.63;1.63;;;;;;;;;;5014462;28;20240;-56
2023/03/29 11:06:31;;;;;;;3.37;1.33;;;;;;;;;;4994100;28;20222;-54
2023/03/29 11:09:01;;;;;;;2.80;1.70;;;;;;;;;;5031322;28;20216;-51
2023/03/29 11:11:34;;;;;;;4.13;1.80;;;;;;;;;;5014041;28;20225;-53
2023/03/29 11:14:31;;;;;;;4.07;1.70;;;;;;;;;;5031642;28;20233;-51
2023/03/29 11:17:21;;;;;;;5.00;2.30;;;;;;;;;;5030605;28;20264;-53
2023/03/29 11:20:02;;;;;;;2.63;1.53;;;;;;;;;;4995604;28;20200;-54
2023/03/29 11:22:34;;;;;;;4.17;1.60;;;;;;;;;;5015554;28;20907;-54
2023/03/29 11:25:26;;;;;;;3.73;1.80;;;;;;;;;;5032978;28;20192;-55
2023/03/29 11:28:17;;;;;;;4.83;2.00;;;;;;;;;;5032521;28;20204;-53
2023/03/29 11:31:16;;;;;;;3.20;1.50;;;;;;;;;;5030619;28;20201;-52
2023/03/29 11:33:55;;;;;;;4.77;2.03;;;;;;;;;;5047383;28;20208;-55
2023/03/29 11:36:34;;;;;;;3.53;1.90;;;;;;;;;;5031229;28;20197;-52
2023/03/29 11:39:04;;;;;;;3.03;1.70;;;;;;;;;;5031698;28;20246;-53
2023/03/29 11:41:37;;;;;;;3.07;1.70;;;;;;;;;;5033108;28;20240;-52
2023/03/29 11:44:34;;;;;;;1.53;1.30;;;;;;;;;;5015947;28;20243;-51
2023/03/29 11:47:11;;;;;;;2.40;1.53;;;;;;;;;;5030503;28;20205;-52
2023/03/29 11:49:43;;;;;;;3.37;1.70;;;;;;;;;;5016080;28;20225;-55
2023/03/29 11:52:16;;;;;;;5.27;1.80;;;;;;;;;;5031911;28;20205;-54
2023/03/29 11:54:53;;;;;;;2.97;1.73;;;;;;;;;;5030150;28;20276;-51
2023/03/29 11:57:35;;;;;;;2.63;1.47;;;;;;;;;;5031180;28;20255;-53
2023/03/29 12:00:14;;;;;;;2.70;1.80;;;;;;;;;;5031161;28;20247;-52
2023/03/29 12:02:46;;;;;;;2.70;1.60;;;;;;;;;;5015909;28;20203;-52
2023/03/29 12:05:19;;;;;;;3.43;1.70;;;;;;;;;;5015724;28;20248;-53
2023/03/29 12:07:58;;;;;;;5.33;1.60;;;;;;;;;;5032739;28;20193;-52
2023/03/29 12:10:33;;;;;;;3.07;1.63;;;;;;;;;;5030184;28;20574;-51
2023/03/29 12:13:09;;;;;;;2.90;1.47;;;;;;;;;;5029883;28;20201;-56
2023/03/29 12:15:42;;;;;;;3.33;1.90;;;;;;;;;;5012378;28;20594;-52
2023/03/29 12:18:19;;;;;;;4.63;2.00;;;;;;;;;;5015439;28;20677;-55
2023/03/29 12:20:50;;;;;;;4.10;2.20;;;;;;;;;;5046976;28;20232;-53
2023/03/29 12:23:18;;;;;;;5.03;2.60;;;;;;;;;;5012765;28;20197;-54
2023/03/29 12:26:01;;;;;;;2.90;1.73;;;;;;;;;;5031489;28;20193;-56
2023/03/29 12:28:43;;;;;;;3.07;1.90;;;;;;;;;;5031667;28;20200;-53
2023/03/29 12:31:16;;;;;;;3.47;1.90;;;;;;;;;;5047186;28;20193;-54
2023/03/29 12:33:56;;;;;;;4.10;1.90;;;;;;;;;;5045867;28;20220;-55
2023/03/29 12:36:56;;;;;;;4.10;2.07;;;;;;;;;;5007940;28;20250;-51
2023/03/29 12:39:42;;;;;;;3.50;1.70;;;;;;;;;;5030690;28;20181;-55
2023/03/29 12:42:28;;;;;;;7.60;2.30;;;;;;;;;;5031637;28;20197;-53
2023/03/29 12:45:01;;;;;;;4.33;1.90;;;;;;;;;;5013618;28;20197;-55
2023/03/29 12:47:35;;;;;;;5.00;2.30;;;;;;;;;;5032023;28;20250;-55
2023/03/29 12:50:03;;;;;;;3.50;2.00;;;;;;;;;;5031559;28;20189;-55
2023/03/29 12:52:33;;;;;;;2.27;1.80;;;;;;;;;;5014394;28;20196;-51
2023/03/29 12:55:04;;;;;;;2.90;2.07;;;;;;;;;;5032483;28;20197;-54
2023/03/29 12:57:41;;;;;;;3.63;2.27;;;;;;;;;;5007597;28;20197;-55
2023/03/29 13:00:24;;;;;;;2.53;1.80;;;;;;;;;;5025363;28;20610;-57
2023/03/29 13:03:27;;;;;;;3.97;2.20;;;;;;;;;;5027744;28;20228;-54
2023/03/29 13:06:03;;;;;;;4.57;2.03;;;;;;;;;;4984411;28;20220;-58
2023/03/29 13:08:37;;;;;;;5.20;2.10;;;;;;;;;;5028583;28;20346;-57
2023/03/29 13:11:05;;;;;;;4.57;2.00;;;;;;;;;;5030199;28;20228;-57
2023/03/29 13:13:37;;;;;;;4.67;1.90;;;;;;;;;;5028561;28;20228;-56
2023/03/29 13:16:13;;;;;;;6.47;3.03;;;;;;;;;;5029853;28;20568;-53
2023/03/29 13:19:05;;;;;;;5.70;2.83;;;;;;;;;;5044957;28;20216;-57
2023/03/29 13:21:35;;;;;;;4.10;1.90;;;;;;;;;;5045019;28;20220;-55
2023/03/29 13:24:21;;;;;;;5.87;2.07;;;;;;;;;;5030836;28;20225;-56
2023/03/29 13:27:25;;;;;;;3.53;2.07;;;;;;;;;;5030359;28;20705;-56
2023/03/29 13:30:27;;;;;;;3.67;2.40;;;;;;;;;;5027534;28;20686;-56
2023/03/29 13:33:06;;;;;;;7.73;2.30;;;;;;;;;;4933915;29;20223;-58
2023/03/29 13:35:41;;;;;;;3.80;2.10;;;;;;;;;;4947759;29;20314;-57
2023/03/29 13:38:34;;;;;;;12.37;1.90;;;;;;;;;;4950012;29;20219;-57
2023/03/29 13:41:11;;;;;;;2.50;1.63;;;;;;;;;;4934417;29;20632;-56
2023/03/29 13:43:54;;;;;;;4.03;2.43;;;;;;;;;;4948602;29;20227;-55
2023/03/29 13:46:37;;;;;;;3.97;2.63;;;;;;;;;;4947991;29;20222;-56
2023/03/29 13:49:13;;;;;;;6.20;1.87;;;;;;;;;;4949861;28;20231;-56
2023/03/29 13:51:52;;;;;;;4.83;2.40;;;;;;;;;;4935594;29;20306;-57
2023/03/29 13:55:02;;;;;;;3.43;2.23;;;;;;;;;;4950970;28;20234;-56
2023/03/29 13:57:41;;;;;;;5.63;2.40;;;;;;;;;;4941154;28;20227;-56
2023/03/29 14:00:17;;;;;;;5.43;2.10;;;;;;;;;;4951217;29;20223;-56
2023/03/29 14:02:53;;;;;;;5.33;2.17;;;;;;;;;;4953915;29;20242;-56
2023/03/29 14:05:27;;;;;;;3.93;2.20;;;;;;;;;;4954750;29;20215;-56
2023/03/29 14:07:54;;;;;;;7.13;2.77;;;;;;;;;;4950563;28;20235;-54
2023/03/29 14:10:30;;;;;;;5.40;2.83;;;;;;;;;;5011868;28;20716;-54
2023/03/29 14:13:00;;;;;;;7.57;3.50;;;;;;;;;;5015499;28;20204;-56
2023/03/29 14:15:41;;;;;;;7.43;3.47;;;;;;;;;;5026503;28;20255;-58
2023/03/29 14:18:10;;;;;;;8.60;3.80;;;;;;;;;;5031671;28;20232;-54
2023/03/29 14:20:42;;;;;;;7.70;4.57;;;;;;;;;;5033001;28;20254;-56
2023/03/29 14:23:11;;;;;;;5.77;3.40;;;;;;;;;;5016702;28;20244;-56
2023/03/29 14:25:42;;;;;;;9.37;3.10;;;;;;;;;;5032768;28;20240;-58
2023/03/29 14:28:27;;;;;;;8.53;3.70;;;;;;;;;;5029331;28;20225;-58
2023/03/29 14:30:55;;;;;;;6.10;3.40;;;;;;;;;;5032190;28;20259;-59
2023/03/29 14:33:33;;;;;;;8.40;4.90;;;;;;;;;;5031370;28;20243;-58
2023/03/29 14:36:02;;;;;;;6.47;3.23;;;;;;;;;;5032355;28;20263;-58
2023/03/29 14:38:30;;;;;;;8.27;3.23;;;;;;;;;;5032608;28;20220;-58
2023/03/29 14:40:59;;;;;;;7.97;4.20;;;;;;;;;;5032517;28;20223;-58
2023/03/29 14:43:29;;;;;;;10.13;3.70;;;;;;;;;;5031106;28;20219;-58
2023/03/29 14:45:57;;;;;;;6.57;2.53;;;;;;;;;;5032283;28;20686;-58
2023/03/29 14:48:25;;;;;;;8.57;3.77;;;;;;;;;;5032196;28;20759;-57
2023/03/29 14:50:52;;;;;;;5.83;2.60;;;;;;;;;;5031618;28;20216;-57
2023/03/29 14:53:21;;;;;;;5.20;2.87;;;;;;;;;;5033111;28;20693;-58
2023/03/29 14:55:51;;;;;;;5.33;3.07;;;;;;;;;;5033079;28;20252;-51
2023/03/29 14:58:27;;;;;;;4.93;2.90;;;;;;;;;;5015476;28;20216;-52
2023/03/29 15:00:54;;;;;;;10.57;3.77;;;;;;;;;;5031886;28;20220;-58
2023/03/29 15:03:24;;;;;;;9.90;3.38;;;;;;;;;;5033145;28;20271;-58
2023/03/29 15:05:58;;;;;;;5.33;3.10;;;;;;;;;;5032903;28;20235;-58
2023/03/29 15:08:36;;;;;;;8.53;3.17;;;;;;;;;;5030836;28;20221;-58
2023/03/29 15:11:17;;;;;;;9.30;3.27;;;;;;;;;;5031697;28;20239;-58
2023/03/29 15:13:45;;;;;;;4.60;2.80;;;;;;;;;;5030045;28;20228;-58
2023/03/29 15:16:15;;;;;;;7.80;2.70;;;;;;;;;;5030233;28;20284;-59
2023/03/29 15:18:43;;;;;;;5.83;3.27;;;;;;;;;;5030065;28;20223;-56
2023/03/29 15:21:12;;;;;;;10.43;3.40;;;;;;;;;;5015372;28;20236;-53
2023/03/29 15:23:46;;;;;;;7.73;3.27;;;;;;;;;;5013766;28;20224;-58
2023/03/29 15:26:20;;;;;;;7.22;3.92;;;;;;;;;;5032885;28;20231;-56
2023/03/29 15:28:54;;;;;;;7.97;4.63;;;;;;;;;;5029651;28;20316;-53
2023/03/29 15:31:33;;;;;;;8.07;3.20;;;;;;;;;;5031908;28;20216;-57
2023/03/29 15:34:06;;;;;;;5.23;2.97;;;;;;;;;;5033381;28;20322;-56